createdAt,value
2023-04-30T00:01:34.132Z,2.80
2023-04-30T00:04:05.546Z,2.60
2023-04-30T00:06:42.756Z,2.40
2023-04-30T00:09:13.716Z,1.63
2023-04-30T00:11:46.388Z,1.58
2023-04-30T00:14:18.362Z,1.17
2023-04-30T00:16:50.520Z,1.67
2023-04-30T00:19:19.611Z,0.88
2023-04-30T00:21:48.712Z,0.65
2023-04-30T00:24:19.732Z,0.70
2023-04-30T00:26:51.172Z,0.50
2023-04-30T00:29:25.700Z,0.40
2023-04-30T00:31:58.067Z,0.43
2023-04-30T00:34:30.024Z,0.55
2023-04-30T00:37:01.652Z,0.40
2023-04-30T00:39:35.238Z,0.60
2023-04-30T00:42:04.314Z,0.60
2023-04-30T00:44:33.261Z,0.30
2023-04-30T00:47:05.037Z,0.40
2023-04-30T00:49:35.585Z,0.52
2023-04-30T00:52:05.330Z,0.60
2023-04-30T00:54:34.447Z,0.60
2023-04-30T00:57:07.637Z,0.60
2023-04-30T00:59:36.843Z,0.65
2023-04-30T01:02:13.561Z,0.60
2023-04-30T01:04:44.791Z,0.80
2023-04-30T01:07:13.886Z,0.88
2023-04-30T01:09:46.054Z,0.98
2023-04-30T01:12:24.280Z,0.82
2023-04-30T01:15:03.025Z,0.90
2023-04-30T01:17:42.579Z,0.82
2023-04-30T01:20:12.492Z,0.90
2023-04-30T01:23:03.075Z,1.05
2023-04-30T01:25:54.245Z,0.75
2023-04-30T01:28:26.247Z,0.60
2023-04-30T01:30:55.992Z,0.82
2023-04-30T01:33:25.022Z,0.70
2023-04-30T01:36:30.209Z,0.55
2023-04-30T01:39:35.447Z,0.43
2023-04-30T01:42:14.656Z,0.60
2023-04-30T01:45:28.402Z,0.60
2023-04-30T01:48:24.508Z,0.57
2023-04-30T01:51:16.252Z,0.75
2023-04-30T01:53:47.564Z,0.60
2023-04-30T01:56:38.618Z,0.70
2023-04-30T01:59:09.199Z,0.60
2023-04-30T02:01:41.489Z,0.85
2023-04-30T02:04:15.545Z,1.00
2023-04-30T02:06:47.438Z,0.52
2023-04-30T02:09:18.820Z,1.15
2023-04-30T02:11:58.281Z,0.60
2023-04-30T02:14:32.437Z,0.93
2023-04-30T02:19:32.986Z,0.77
2023-04-30T02:22:07.470Z,0.55
2023-04-30T02:24:38.043Z,0.40
2023-04-30T02:27:08.110Z,0.60
2023-04-30T02:29:41.060Z,0.30
2023-04-30T02:32:09.890Z,0.55
2023-04-30T02:34:41.749Z,0.40
2023-04-30T02:37:12.015Z,0.52
2023-04-30T02:39:47.691Z,0.40
2023-04-30T02:42:16.833Z,0.70
2023-04-30T02:44:48.682Z,0.30
2023-04-30T02:47:19.888Z,0.60
2023-04-30T02:49:55.081Z,0.40
2023-04-30T02:52:27.360Z,0.43
2023-04-30T02:54:59.569Z,0.65
2023-04-30T02:57:39.548Z,0.80
2023-04-30T03:00:08.956Z,0.80
2023-04-30T03:02:40.620Z,0.50
2023-04-30T03:05:22.443Z,0.90
2023-04-30T03:07:55.031Z,0.80
2023-04-30T03:10:24.100Z,0.85
2023-04-30T03:12:54.705Z,1.00
2023-04-30T03:15:24.081Z,0.88
2023-04-30T03:17:55.396Z,0.65
2023-04-30T03:20:26.937Z,0.75
2023-04-30T03:22:58.451Z,0.80
2023-04-30T03:25:30.425Z,0.70
2023-04-30T03:28:01.869Z,0.68
2023-04-30T03:30:33.019Z,0.70
2023-04-30T03:33:02.308Z,0.63
2023-04-30T03:35:31.127Z,0.95
2023-04-30T03:38:02.905Z,0.50
2023-04-30T03:40:32.442Z,0.82
2023-04-30T03:43:03.373Z,0.80
2023-04-30T03:45:32.559Z,0.43
2023-04-30T03:48:07.381Z,0.60
2023-04-30T03:50:39.509Z,0.68
2023-04-30T03:53:10.819Z,0.60
2023-04-30T03:55:39.927Z,0.60
2023-04-30T03:58:12.968Z,0.60
2023-04-30T04:00:42.546Z,0.82
2023-04-30T04:03:13.457Z,0.55
2023-04-30T04:05:44.057Z,0.55
2023-04-30T04:08:16.111Z,0.65
2023-04-30T04:10:50.329Z,0.70
2023-04-30T04:13:22.549Z,0.70
2023-04-30T04:15:51.750Z,0.63
2023-04-30T04:18:20.681Z,0.75
2023-04-30T04:20:49.555Z,0.82
2023-04-30T04:23:19.962Z,1.35
2023-04-30T04:25:54.074Z,1.27
2023-04-30T04:28:28.140Z,1.30
2023-04-30T04:31:03.821Z,0.88
2023-04-30T04:33:35.189Z,0.73
2023-04-30T04:36:06.801Z,0.70
2023-04-30T04:38:43.188Z,0.57
2023-04-30T04:41:17.015Z,0.57
2023-04-30T04:43:48.600Z,0.63
2023-04-30T04:46:18.079Z,0.75
2023-04-30T04:48:47.728Z,0.70
2023-04-30T04:51:21.218Z,0.50
2023-04-30T04:53:53.636Z,0.50
2023-04-30T04:56:30.418Z,0.52
2023-04-30T04:59:00.015Z,0.40
2023-04-30T05:04:01.763Z,0.32
2023-04-30T05:06:32.658Z,0.60
2023-04-30T05:09:09.597Z,0.60
2023-04-30T05:11:44.290Z,0.50
2023-04-30T05:14:17.468Z,0.70
2023-04-30T05:16:48.251Z,0.50
2023-04-30T05:19:17.233Z,0.60
2023-04-30T05:21:51.885Z,0.50
2023-04-30T05:24:27.036Z,0.40
2023-04-30T05:26:58.086Z,0.80
2023-04-30T05:29:32.788Z,0.75
2023-04-30T05:32:04.902Z,0.75
2023-04-30T05:34:33.862Z,0.80
2023-04-30T05:37:06.004Z,0.70
2023-04-30T05:39:34.987Z,1.20
2023-04-30T05:42:04.497Z,0.70
2023-04-30T05:44:39.649Z,1.10
2023-04-30T05:47:10.903Z,0.60
2023-04-30T05:49:42.223Z,1.30
2023-04-30T05:52:11.652Z,0.93
2023-04-30T05:54:40.660Z,1.08
2023-04-30T05:57:12.404Z,1.30
2023-04-30T05:59:44.102Z,1.42
2023-04-30T06:02:15.555Z,1.83
2023-04-30T06:04:44.488Z,1.80
2023-04-30T06:07:18.271Z,2.03
2023-04-30T06:09:47.357Z,1.40
2023-04-30T06:12:18.740Z,0.90
2023-04-30T06:14:53.480Z,1.23
2023-04-30T06:17:25.152Z,0.80
2023-04-30T06:20:02.889Z,0.70
2023-04-30T06:22:32.754Z,0.90
2023-04-30T06:25:02.205Z,0.77
2023-04-30T06:27:32.804Z,1.10
2023-04-30T06:30:05.424Z,0.75
2023-04-30T06:32:34.424Z,0.70
2023-04-30T06:35:03.315Z,2.83
2023-04-30T06:37:38.345Z,0.70
2023-04-30T06:40:08.987Z,1.10
2023-04-30T06:42:38.182Z,0.73
2023-04-30T06:45:15.561Z,0.73
2023-04-30T06:47:46.720Z,0.98
2023-04-30T06:50:22.436Z,0.65
2023-04-30T06:52:57.591Z,1.00
2023-04-30T06:55:29.877Z,0.88
2023-04-30T06:57:58.939Z,0.70
2023-04-30T07:00:30.374Z,1.00
2023-04-30T07:03:03.263Z,1.30
2023-04-30T07:08:05.481Z,1.10
2023-04-30T07:10:39.901Z,1.50
2023-04-30T07:15:42.672Z,1.67
2023-04-30T07:18:11.915Z,2.00
2023-04-30T07:20:41.774Z,2.20
2023-04-30T07:23:10.864Z,1.75
2023-04-30T07:25:46.579Z,1.63
2023-04-30T07:28:18.080Z,1.88
2023-04-30T07:30:49.565Z,1.85
2023-04-30T07:33:24.457Z,2.42
2023-04-30T07:35:55.054Z,2.03
2023-04-30T07:38:24.369Z,2.55
2023-04-30T07:40:54.112Z,2.60
2023-04-30T07:43:23.084Z,2.17
2023-04-30T07:45:55.328Z,2.13
2023-04-30T07:48:24.356Z,2.28
2023-04-30T07:51:03.418Z,2.00
2023-04-30T07:53:35.436Z,1.98
2023-04-30T07:56:08.844Z,1.70
2023-04-30T07:58:40.665Z,2.38
2023-04-30T08:01:14.280Z,2.10
2023-04-30T08:03:43.389Z,1.70
2023-04-30T08:06:12.633Z,1.75
2023-04-30T08:08:45.330Z,2.08
2023-04-30T08:11:14.179Z,2.33
2023-04-30T08:13:44.350Z,2.50
2023-04-30T08:16:16.475Z,1.92
2023-04-30T08:18:47.150Z,2.28
2023-04-30T08:21:16.952Z,2.55
2023-04-30T08:23:46.382Z,2.60
2023-04-30T08:26:15.246Z,2.70
2023-04-30T08:28:44.449Z,2.50
2023-04-30T08:31:14.119Z,1.90
2023-04-30T08:33:48.078Z,2.00
2023-04-30T08:36:20.483Z,2.33
2023-04-30T08:38:51.469Z,2.10
2023-04-30T08:41:26.868Z,2.17
2023-04-30T08:44:06.929Z,1.95
2023-04-30T08:46:40.159Z,2.17
2023-04-30T08:49:11.929Z,1.63
2023-04-30T08:51:41.627Z,2.15
2023-04-30T08:54:14.803Z,2.08
2023-04-30T08:56:44.140Z,1.73
2023-04-30T08:59:17.217Z,1.67
2023-04-30T09:01:49.353Z,1.98
2023-04-30T09:04:22.395Z,1.63
2023-04-30T09:06:59.482Z,1.67
2023-04-30T09:09:38.311Z,1.70
2023-04-30T09:12:20.344Z,1.73
2023-04-30T09:15:09.471Z,2.00
2023-04-30T09:17:39.485Z,2.13
2023-04-30T09:20:14.035Z,1.63
2023-04-30T09:22:43.441Z,1.23
2023-04-30T09:25:17.095Z,1.65
2023-04-30T09:27:48.819Z,2.00
2023-04-30T09:30:33.396Z,1.65
2023-04-30T09:33:10.872Z,1.55
2023-04-30T09:35:46.057Z,1.65
2023-04-30T09:38:32.520Z,1.50
2023-04-30T09:41:02.759Z,0.90
2023-04-30T09:43:32.174Z,1.88
2023-04-30T09:46:01.491Z,1.30
2023-04-30T09:48:30.590Z,1.40
2023-04-30T09:51:04.175Z,1.17
2023-04-30T09:53:38.621Z,1.48
2023-04-30T09:56:09.126Z,1.60
2023-04-30T09:58:45.865Z,1.90
2023-04-30T10:01:20.235Z,1.30
2023-04-30T10:03:52.164Z,1.80
2023-04-30T10:06:25.264Z,1.80
2023-04-30T10:08:58.126Z,1.88
2023-04-30T10:11:35.854Z,2.28
2023-04-30T10:14:14.595Z,2.78
2023-04-30T10:17:08.448Z,3.17
2023-04-30T10:19:42.139Z,3.17
2023-04-30T10:22:19.274Z,3.15
2023-04-30T10:24:52.483Z,2.70
2023-04-30T10:27:21.970Z,2.90
2023-04-30T10:29:56.572Z,2.70
2023-04-30T10:35:14.390Z,2.35
2023-04-30T10:37:59.612Z,2.20
2023-04-30T10:40:39.911Z,2.17
2023-04-30T10:43:12.579Z,2.00
2023-04-30T10:45:47.796Z,1.50
2023-04-30T10:48:25.226Z,1.60
2023-04-30T10:50:57.645Z,1.63
2023-04-30T10:53:28.619Z,1.50
2023-04-30T10:56:09.944Z,1.23
2023-04-30T10:58:45.976Z,1.00
2023-04-30T11:01:18.742Z,0.95
2023-04-30T11:04:08.743Z,0.98
2023-04-30T11:07:04.360Z,0.90
2023-04-30T11:09:44.184Z,1.30
2023-04-30T11:12:28.903Z,0.73
2023-04-30T11:15:23.197Z,0.85
2023-04-30T11:17:57.798Z,0.70
2023-04-30T11:20:29.101Z,0.90
2023-04-30T11:23:32.181Z,0.93
2023-04-30T11:26:15.386Z,1.10
2023-04-30T11:29:04.393Z,1.50
2023-04-30T11:31:37.103Z,1.70
2023-04-30T11:34:07.805Z,1.58
2023-04-30T11:36:41.998Z,2.03
2023-04-30T11:39:13.404Z,2.60
2023-04-30T11:41:47.951Z,2.85
2023-04-30T11:44:29.382Z,2.63
2023-04-30T11:46:58.719Z,2.47
2023-04-30T11:49:29.058Z,2.70
2023-04-30T11:51:58.352Z,2.50
2023-04-30T11:54:27.364Z,2.50
2023-04-30T11:57:04.733Z,2.80
2023-04-30T11:59:42.903Z,2.47
2023-04-30T12:02:19.693Z,3.42
2023-04-30T12:04:54.722Z,2.83
2023-04-30T12:07:24.118Z,2.50
2023-04-30T12:10:00.135Z,3.08
2023-04-30T12:12:31.009Z,2.38
2023-04-30T12:15:12.781Z,2.45
2023-04-30T12:17:49.940Z,2.03
2023-04-30T12:20:19.652Z,2.33
2023-04-30T12:22:51.144Z,2.42
2023-04-30T12:25:25.448Z,2.45
2023-04-30T12:27:56.081Z,2.35
2023-04-30T12:30:33.772Z,2.53
2023-04-30T12:33:08.984Z,2.40
2023-04-30T12:35:43.543Z,2.22
2023-04-30T12:38:20.823Z,1.90
2023-04-30T12:40:49.864Z,2.72
2023-04-30T12:43:22.209Z,2.60
2023-04-30T12:45:56.228Z,2.40
2023-04-30T12:48:28.551Z,2.20
2023-04-30T12:51:05.524Z,2.42
2023-04-30T12:53:47.609Z,2.47
2023-04-30T12:56:22.970Z,2.92
2023-04-30T12:58:56.160Z,2.65
2023-04-30T13:01:28.119Z,2.45
2023-04-30T13:04:02.504Z,2.28
2023-04-30T13:06:33.642Z,2.30
2023-04-30T13:09:05.568Z,2.47
2023-04-30T13:11:37.041Z,2.72
2023-04-30T13:16:40.326Z,3.25
2023-04-30T13:19:09.709Z,2.42
2023-04-30T13:21:39.452Z,2.70
2023-04-30T13:24:14.184Z,2.72
2023-04-30T13:26:43.331Z,2.17
2023-04-30T13:29:18.236Z,2.70
2023-04-30T13:31:52.978Z,2.38
2023-04-30T13:34:25.026Z,2.15
2023-04-30T13:36:57.179Z,2.55
2023-04-30T13:39:28.771Z,2.30
2023-04-30T13:42:02.450Z,2.30
2023-04-30T13:44:37.688Z,2.60
2023-04-30T13:47:08.055Z,2.38
2023-04-30T13:49:41.767Z,2.40
2023-04-30T13:52:13.531Z,2.50
2023-04-30T13:54:42.474Z,2.10
2023-04-30T13:57:14.209Z,2.47
2023-04-30T13:59:49.527Z,2.60
2023-04-30T14:02:23.445Z,2.20
2023-04-30T14:05:05.282Z,2.28
2023-04-30T14:07:36.248Z,2.40
2023-04-30T14:10:10.650Z,2.50
2023-04-30T14:12:39.893Z,2.20
2023-04-30T14:15:15.671Z,1.98
2023-04-30T14:17:45.163Z,2.03
2023-04-30T14:20:19.380Z,1.92
2023-04-30T14:22:48.607Z,1.83
2023-04-30T14:25:20.250Z,2.00
2023-04-30T14:27:49.183Z,2.00
2023-04-30T14:30:21.480Z,2.00
2023-04-30T14:32:53.078Z,2.10
2023-04-30T14:35:24.483Z,2.10
2023-04-30T14:38:00.138Z,2.38
2023-04-30T14:40:29.906Z,2.42
2023-04-30T14:43:01.906Z,2.03
2023-04-30T14:45:37.216Z,2.05
2023-04-30T14:48:09.146Z,2.30
2023-04-30T14:50:47.531Z,2.30
2023-04-30T14:53:21.602Z,2.28
2023-04-30T14:55:53.400Z,2.38
2023-04-30T14:58:22.803Z,2.50
2023-04-30T15:00:57.492Z,2.30
2023-04-30T15:03:30.106Z,2.47
2023-04-30T15:11:11.365Z,1.88
2023-04-30T15:13:44.965Z,2.20
2023-04-30T15:16:17.725Z,2.33
2023-04-30T15:18:51.952Z,2.35
2023-04-30T15:21:23.529Z,2.13
2023-04-30T15:24:01.878Z,2.30
2023-04-30T15:26:37.038Z,1.77
2023-04-30T15:29:11.621Z,2.15
2023-04-30T15:31:41.676Z,2.28
2023-04-30T15:34:16.215Z,2.30
2023-04-30T15:36:47.555Z,2.15
2023-04-30T15:39:16.758Z,2.00
2023-04-30T15:41:48.151Z,2.00
2023-04-30T15:44:20.461Z,2.15
2023-04-30T15:46:56.536Z,2.60
2023-04-30T15:49:26.673Z,2.95
2023-04-30T15:51:58.530Z,2.95
2023-04-30T15:54:30.174Z,2.50
2023-04-30T15:57:03.576Z,2.60
2023-04-30T15:59:32.447Z,2.38
2023-04-30T16:02:03.174Z,2.72
2023-04-30T16:04:34.759Z,2.63
2023-04-30T16:07:10.485Z,2.30
2023-04-30T16:09:46.270Z,3.05
2023-04-30T16:12:20.172Z,2.35
2023-04-30T16:14:54.680Z,2.28
2023-04-30T16:17:29.619Z,2.85
2023-04-30T16:20:02.177Z,2.70
2023-04-30T16:22:37.849Z,3.05
2023-04-30T16:25:10.931Z,2.33
2023-04-30T16:27:44.091Z,2.90
2023-04-30T16:30:13.347Z,2.67
2023-04-30T16:32:48.569Z,2.65
2023-04-30T16:35:19.866Z,2.55
2023-04-30T16:37:52.517Z,2.97
2023-04-30T16:40:25.033Z,2.95
2023-04-30T16:42:54.469Z,3.00
2023-04-30T16:45:27.209Z,2.40
2023-04-30T16:47:59.218Z,2.33
2023-04-30T16:50:31.737Z,2.33
2023-04-30T16:53:02.123Z,1.85
2023-04-30T16:55:35.689Z,2.00
2023-04-30T16:58:04.888Z,2.35
2023-04-30T17:00:34.134Z,2.33
2023-04-30T17:03:03.459Z,2.25
2023-04-30T17:05:32.571Z,2.65
2023-04-30T17:08:06.256Z,1.95
2023-04-30T17:10:35.423Z,2.40
2023-04-30T17:13:11.440Z,3.80
2023-04-30T17:15:43.946Z,2.70
2023-04-30T17:18:18.876Z,2.38
2023-04-30T17:20:50.185Z,2.70
2023-04-30T17:23:20.036Z,3.03
2023-04-30T17:25:52.361Z,3.22
2023-04-30T17:28:21.451Z,3.63
2023-04-30T17:30:53.141Z,3.92
2023-04-30T17:33:27.412Z,3.83
2023-04-30T17:36:02.141Z,4.35
2023-04-30T17:38:34.479Z,4.47
2023-04-30T17:41:07.393Z,4.68
2023-04-30T17:43:46.574Z,4.53
2023-04-30T17:46:20.986Z,4.97
2023-04-30T17:48:54.507Z,5.10
2023-04-30T17:53:58.180Z,4.95
2023-04-30T17:56:31.048Z,4.93
2023-04-30T18:01:34.184Z,4.78
2023-04-30T18:04:08.334Z,5.40
2023-04-30T18:06:40.069Z,5.32
2023-04-30T18:09:09.346Z,4.38
2023-04-30T18:11:38.568Z,5.45
2023-04-30T18:14:08.764Z,6.53
2023-04-30T18:16:43.630Z,5.75
2023-04-30T18:19:13.490Z,6.15
2023-04-30T18:21:45.996Z,6.13
2023-04-30T18:24:16.061Z,5.90
2023-04-30T18:26:55.806Z,5.80
2023-04-30T18:29:25.249Z,5.72
2023-04-30T18:31:58.722Z,5.75
2023-04-30T18:34:28.868Z,5.43
2023-04-30T18:37:01.025Z,6.03
2023-04-30T18:39:35.013Z,5.43
2023-04-30T18:42:07.073Z,5.32
2023-04-30T18:44:37.140Z,5.32
2023-04-30T18:47:07.468Z,4.68
2023-04-30T18:49:37.020Z,5.55
2023-04-30T18:52:12.824Z,4.57
2023-04-30T18:54:42.888Z,4.78
2023-04-30T18:57:16.933Z,4.43
2023-04-30T18:59:46.323Z,4.00
2023-04-30T19:02:17.610Z,3.90
2023-04-30T19:04:51.577Z,4.10
2023-04-30T19:07:20.735Z,3.50
2023-04-30T19:09:54.878Z,3.55
2023-04-30T19:12:27.444Z,3.80
2023-04-30T19:15:03.479Z,3.30
2023-04-30T19:17:37.555Z,4.28
2023-04-30T19:20:07.646Z,3.67
2023-04-30T19:22:39.556Z,3.58
2023-04-30T19:25:11.626Z,3.60
2023-04-30T19:27:45.916Z,3.35
2023-04-30T19:30:17.530Z,3.95
2023-04-30T19:32:49.127Z,3.67
2023-04-30T19:35:21.033Z,3.92
2023-04-30T19:37:49.940Z,4.07
2023-04-30T19:40:19.357Z,3.53
2023-04-30T19:45:24.006Z,3.45
2023-04-30T19:47:57.019Z,3.08
2023-04-30T19:50:32.297Z,3.25
2023-04-30T19:53:01.414Z,3.30
2023-04-30T19:55:34.800Z,3.30
2023-04-30T19:58:07.148Z,3.00
2023-04-30T20:00:45.618Z,3.22
2023-04-30T20:03:18.431Z,2.95
2023-04-30T20:05:48.098Z,2.10
2023-04-30T20:08:18.441Z,2.13
2023-04-30T20:10:53.191Z,2.45
2023-04-30T20:13:25.183Z,2.50
2023-04-30T20:18:35.761Z,2.63
2023-04-30T20:21:05.234Z,3.00
2023-04-30T20:23:41.385Z,2.97
2023-04-30T20:26:11.245Z,2.83
2023-04-30T20:31:16.707Z,2.92
2023-04-30T20:33:48.374Z,3.65
2023-04-30T20:36:17.937Z,3.38
2023-04-30T20:38:57.670Z,3.40
2023-04-30T20:41:27.396Z,3.08
2023-04-30T20:43:57.296Z,3.55
2023-04-30T20:46:32.760Z,4.10
2023-04-30T20:49:06.561Z,3.80
2023-04-30T20:51:39.933Z,3.72
2023-04-30T20:54:12.233Z,3.70
2023-04-30T20:56:45.588Z,3.78
2023-04-30T20:59:17.154Z,4.13
2023-04-30T21:01:48.667Z,3.53
2023-04-30T21:04:24.579Z,3.63
2023-04-30T21:06:53.939Z,3.78
2023-04-30T21:09:27.566Z,3.78
2023-04-30T21:11:58.918Z,3.83
2023-04-30T21:14:34.717Z,3.90
2023-04-30T21:17:08.400Z,3.53
2023-04-30T21:19:38.440Z,3.63
2023-04-30T21:22:08.553Z,3.92
2023-04-30T21:24:40.395Z,3.95
2023-04-30T21:27:12.460Z,3.80
2023-04-30T21:29:44.380Z,3.67
2023-04-30T21:32:18.914Z,3.95
2023-04-30T21:34:47.960Z,3.60
2023-04-30T21:37:19.352Z,3.28
2023-04-30T21:39:48.280Z,3.75
2023-04-30T21:42:17.451Z,3.35
2023-04-30T21:44:49.062Z,3.33
2023-04-30T21:47:20.099Z,3.47
2023-04-30T21:49:49.038Z,3.40
2023-04-30T21:52:18.039Z,3.45
2023-04-30T21:54:51.029Z,3.67
2023-04-30T21:57:27.137Z,3.30
2023-04-30T22:00:00.991Z,3.58
2023-04-30T22:02:30.101Z,3.25
2023-04-30T22:04:59.384Z,3.10
2023-04-30T22:07:30.210Z,3.22
2023-04-30T22:10:03.239Z,3.50
2023-04-30T22:12:34.099Z,3.47
2023-04-30T22:15:27.421Z,3.35
2023-04-30T22:18:50.640Z,3.50
2023-04-30T22:21:48.450Z,3.70
2023-04-30T22:26:51.718Z,3.65
2023-04-30T22:29:20.885Z,3.00
2023-04-30T22:31:49.704Z,2.95
2023-04-30T22:34:19.886Z,3.53
2023-04-30T22:36:48.904Z,3.20
2023-04-30T22:39:19.029Z,2.95
2023-04-30T22:41:47.885Z,3.92
2023-04-30T22:44:20.967Z,3.13
2023-04-30T22:46:52.973Z,2.90
2023-04-30T22:49:31.242Z,2.85
2023-04-30T22:52:01.747Z,3.22
2023-04-30T22:54:33.968Z,3.05
2023-04-30T22:57:05.487Z,2.75
2023-04-30T22:59:34.482Z,3.22
2023-04-30T23:02:06.226Z,3.60
2023-04-30T23:04:36.686Z,2.72
2023-04-30T23:07:05.838Z,3.38
2023-04-30T23:09:36.061Z,3.00
2023-04-30T23:12:05.342Z,2.78
2023-04-30T23:14:37.935Z,3.08
2023-04-30T23:17:09.356Z,3.53
2023-04-30T23:19:38.405Z,2.90
2023-04-30T23:22:08.216Z,3.30
2023-04-30T23:24:39.772Z,3.92
2023-04-30T23:27:13.460Z,3.15
2023-04-30T23:29:43.938Z,3.15
2023-04-30T23:32:16.629Z,2.75
2023-04-30T23:34:50.248Z,2.75
2023-04-30T23:37:23.628Z,3.17
2023-04-30T23:39:52.440Z,2.83
2023-04-30T23:42:24.255Z,3.15
2023-04-30T23:44:53.120Z,2.95
2023-04-30T23:47:24.379Z,2.70
2023-04-30T23:49:56.754Z,2.67
2023-04-30T23:52:27.843Z,2.53
2023-04-30T23:54:58.829Z,2.25
2023-04-30T23:57:30.167Z,2.60
2023-04-30T23:59:59.718Z,2.17
